»·PEaware :: N149CD KVNY-KLGB

N149CD :: KVNY-KLGB

FLIGHT INFORMATION

Flight Status: Arrived
Operator: Privately registered:
United States
More flights under this callsign
Pilot: Nathan E. (30132)
Aircraft: CESSNA 172 SKYHAWK
(C172)
More flights by this aircraft type
Origin: KVNY Van Nuys
United States
Destination: KLGB Long Beach
United States
More flights between these airports :: More routes between these airports
Route: ADAMM3 ADAMM V394 SLI
File this flight plan on PilotEdge
Remarks: TEC route BURP19
Altitude:
(Current/Filed)
5,000ft
Speed:
(Current/Filed)
110kts
Departed: 28-Dec-20 02:52 PM
Arrived: 28-Dec-20 03:32 PM
Distance/Time
Traveled:
29nm/0:40
Distance/Time
To Go:
Arrived

Flight Plot

Page will automatically refresh every two minutes.

Flight plan parsing failed; only flown route is shown


Map Options




Map Legend


Flown Route
Filed Route
Departure Airport
Arrival Airport
Navaid (VOR, NDB)
Fix

Horizontal Profiles

Position Reports

Time Latitude Longitude Heading Altitude Ground
Speed
28-Dec-20 14:27 34.208083 -118.491766 91 805ft 0kts
28-Dec-20 14:27 34.208083 -118.491766 91 805ft 0kts
28-Dec-20 14:28 34.208083 -118.491766 91 805ft 0kts
28-Dec-20 14:29 34.208083 -118.491766 91 805ft 0kts
28-Dec-20 14:30 34.208083 -118.491766 90 805ft 0kts
28-Dec-20 14:31 34.208083 -118.491766 90 805ft 0kts
28-Dec-20 14:32 34.208083 -118.491766 90 805ft 0kts
28-Dec-20 14:33 34.208083 -118.491766 90 805ft 0kts
28-Dec-20 14:34 34.208083 -118.491766 90 805ft 0kts
28-Dec-20 14:35 34.208083 -118.491766 90 805ft 0kts
28-Dec-20 14:36 34.208083 -118.491766 90 805ft 0kts
28-Dec-20 14:37 34.208083 -118.491766 90 805ft 0kts
28-Dec-20 14:38 34.208083 -118.491766 90 805ft 0kts
28-Dec-20 14:39 34.208083 -118.491766 90 805ft 0kts
28-Dec-20 14:40 34.208083 -118.491766 90 805ft 0kts
28-Dec-20 14:41 34.208083 -118.491766 90 805ft 0kts
28-Dec-20 14:42 34.208358 -118.491416 7 805ft 13kts
28-Dec-20 14:43 34.213434 -118.491883 356 805ft 20kts
28-Dec-20 14:44 34.218720 -118.492467 346 805ft 15kts
28-Dec-20 14:45 34.219029 -118.492165 97 805ft 0kts
28-Dec-20 14:46 34.219029 -118.492165 97 805ft 0kts
28-Dec-20 14:47 34.219029 -118.492165 97 805ft 0kts
28-Dec-20 14:48 34.219029 -118.492165 97 805ft 0kts
28-Dec-20 14:49 34.219029 -118.492165 97 805ft 0kts
28-Dec-20 14:50 34.219029 -118.492165 97 805ft 0kts
28-Dec-20 14:51 34.215844 -118.490942 175 805ft 61kts
28-Dec-20 14:52 34.194010 -118.489699 175 1680ft 79kts
28-Dec-20 14:53 34.175149 -118.479429 125 2660ft 80kts
28-Dec-20 14:54 34.161419 -118.460877 125 3684ft 70kts
28-Dec-20 14:55 34.152711 -118.441742 83 4593ft 69kts
28-Dec-20 14:56 34.156622 -118.415182 84 5046ft 103kts
28-Dec-20 14:57 34.161729 -118.379598 85 5035ft 108kts
28-Dec-20 14:58 34.166416 -118.343620 88 5031ft 109kts
28-Dec-20 14:59 34.168705 -118.306632 119 5020ft 105kts
28-Dec-20 15:00 34.156742 -118.275157 115 5034ft 102kts
28-Dec-20 15:01 34.146836 -118.242880 112 5040ft 101kts
28-Dec-20 15:02 34.137152 -118.210585 111 5047ft 102kts
28-Dec-20 15:03 34.127441 -118.178147 110 5053ft 100kts
28-Dec-20 15:04 34.116103 -118.140035 104 5062ft 129kts
28-Dec-20 15:05 34.103395 -118.097708 106 5069ft 129kts
28-Dec-20 15:06 34.090370 -118.054892 107 5069ft 130kts
28-Dec-20 15:07 34.077622 -118.013511 107 5021ft 128kts
28-Dec-20 15:08 34.064685 -117.971344 107 5014ft 128kts
28-Dec-20 15:09 34.051856 -117.929691 107 5008ft 128kts
28-Dec-20 15:10 34.039017 -117.888063 107 5003ft 127kts
28-Dec-20 15:11 34.026286 -117.846844 107 4999ft 127kts
28-Dec-20 15:12 34.000588 -117.826826 196 4995ft 122kts
28-Dec-20 15:13 33.968857 -117.840289 206 5004ft 121kts
28-Dec-20 15:14 33.937439 -117.855438 206 5003ft 121kts
28-Dec-20 15:15 33.906003 -117.870640 206 5002ft 122kts
28-Dec-20 15:16 33.875274 -117.885655 193 4915ft 108kts
28-Dec-20 15:17 33.846626 -117.899352 194 4424ft 111kts
28-Dec-20 15:18 33.821172 -117.917603 232 4007ft 110kts
28-Dec-20 15:19 33.806794 -117.951069 195 4045ft 97kts
28-Dec-20 15:20 33.778794 -117.949611 172 3560ft 104kts
28-Dec-20 15:21 33.750579 -117.945091 172 3064ft 101kts
28-Dec-20 15:22 33.721916 -117.940262 171 3010ft 105kts
28-Dec-20 15:23 33.696435 -117.950312 220 2738ft 106kts
28-Dec-20 15:24 33.677013 -117.978014 255 2229ft 117kts
28-Dec-20 15:25 33.697700 -118.007368 313 2007ft 112kts
28-Dec-20 15:26 33.721321 -118.034918 311 2009ft 122kts
28-Dec-20 15:27 33.745330 -118.063806 312 1848ft 122kts
28-Dec-20 15:28 33.768445 -118.091666 312 1240ft 107kts
28-Dec-20 15:29 33.788487 -118.115910 311 692ft 99kts
28-Dec-20 15:30 33.805032 -118.135872 308 228ft 70kts
28-Dec-20 15:31 33.814177 -118.147002 312 34ft 22kts
28-Dec-20 15:32 33.814931 -118.148706 268 36ft 0kts
28-Dec-20 15:33 33.814216 -118.150991 181 38ft 12kts
28-Dec-20 15:34 33.812577 -118.152532 179 40ft 0kts

Navigation Log

Ident Type
Flight plan parsing failed, navigation log unavailable